createdAt,value
2023-05-09T00:01:54.016Z,101872.12
2023-05-09T00:04:22.379Z,101872.12
2023-05-09T00:06:50.371Z,101870.52
2023-05-09T00:09:18.803Z,101874.70
2023-05-09T00:11:46.740Z,101864.96
2023-05-09T00:14:15.225Z,101867.05
2023-05-09T00:16:43.209Z,101868.36
2023-05-09T00:19:11.265Z,101867.55
2023-05-09T00:21:39.222Z,101862.57
2023-05-09T00:24:07.630Z,101863.06
2023-05-09T00:26:35.585Z,101865.19
2023-05-09T00:29:03.562Z,101866.95
2023-05-09T00:31:31.511Z,101867.45
2023-05-09T00:33:59.529Z,101866.34
2023-05-09T00:36:27.382Z,101861.85
2023-05-09T00:38:55.258Z,101858.98
2023-05-09T00:41:23.297Z,101854.04
2023-05-09T00:43:51.118Z,101853.22
2023-05-09T00:46:19.067Z,101844.59
2023-05-09T00:48:47.921Z,101853.55
2023-05-09T00:51:16.758Z,101850.67
2023-05-09T00:53:44.849Z,101853.55
2023-05-09T00:56:13.479Z,101846.16
2023-05-09T00:58:41.525Z,101846.16
2023-05-09T01:01:09.864Z,101842.49
2023-05-09T01:03:40.372Z,101843.28
2023-05-09T01:06:42.482Z,101840.92
2023-05-09T01:09:32.466Z,101838.84
2023-05-09T01:12:14.831Z,101838.84
2023-05-09T01:15:05.668Z,101825.23
2023-05-09T01:18:08.290Z,101817.35
2023-05-09T01:20:47.917Z,101820.23
2023-05-09T01:23:34.634Z,101813.69
2023-05-09T01:26:02.760Z,101808.95
2023-05-09T01:28:45.144Z,101814.70
2023-05-09T01:31:14.228Z,101804.95
2023-05-09T01:33:47.201Z,101811.49
2023-05-09T01:36:18.588Z,101810.41
2023-05-09T01:38:51.501Z,101803.84
2023-05-09T01:41:20.587Z,101801.45
2023-05-09T01:43:50.892Z,101797.99
2023-05-09T01:46:20.692Z,101791.45
2023-05-09T01:48:51.718Z,101805.05
2023-05-09T01:51:21.953Z,101803.16
2023-05-09T01:53:51.797Z,101797.59
2023-05-09T01:56:20.472Z,101799.66
2023-05-09T01:58:52.513Z,101796.78
2023-05-09T02:01:21.206Z,101798.09
2023-05-09T02:03:53.732Z,101799.66
2023-05-09T02:06:23.562Z,101797.30
2023-05-09T02:08:52.419Z,101795.99
2023-05-09T02:11:20.276Z,101799.66
2023-05-09T02:13:48.275Z,101799.95
2023-05-09T02:16:16.640Z,101799.46
2023-05-09T02:18:44.522Z,101804.76
2023-05-09T02:21:13.212Z,101797.70
2023-05-09T02:23:41.248Z,101798.28
2023-05-09T02:26:09.575Z,101792.53
2023-05-09T02:28:39.652Z,101800.18
2023-05-09T02:31:09.652Z,101790.24
2023-05-09T02:33:39.324Z,101791.02
2023-05-09T02:36:07.802Z,101790.53
2023-05-09T02:38:37.248Z,101781.90
2023-05-09T02:41:05.174Z,101771.14
2023-05-09T02:43:33.051Z,101781.90
2023-05-09T02:46:00.957Z,101777.72
2023-05-09T02:48:28.805Z,101772.74
2023-05-09T02:50:56.705Z,101773.04
2023-05-09T02:53:24.636Z,101775.13
2023-05-09T02:55:52.672Z,101766.50
2023-05-09T02:58:21.202Z,101770.16
2023-05-09T03:00:49.135Z,101768.07
2023-05-09T03:03:19.268Z,101763.88
2023-05-09T03:05:47.720Z,101763.88
2023-05-09T03:08:15.714Z,101761.82
2023-05-09T03:10:43.575Z,101762.31
2023-05-09T03:13:12.193Z,101765.48
2023-05-09T03:15:40.183Z,101769.97
2023-05-09T03:18:08.130Z,101771.57
2023-05-09T03:20:36.045Z,101774.45
2023-05-09T03:23:03.981Z,101770.26
2023-05-09T03:25:31.894Z,101770.26
2023-05-09T03:27:59.754Z,101767.38
2023-05-09T03:30:28.481Z,101767.68
2023-05-09T03:32:56.444Z,101772.35
2023-05-09T03:35:24.500Z,101759.53
2023-05-09T03:37:52.348Z,101761.92
2023-05-09T03:40:20.289Z,101740.63
2023-05-09T03:42:48.386Z,101748.81
2023-05-09T03:45:16.472Z,101738.87
2023-05-09T03:47:44.570Z,101746.20
2023-05-09T03:50:12.577Z,101746.48
2023-05-09T03:52:40.506Z,101746.48
2023-05-09T03:55:08.974Z,101743.12
2023-05-09T03:57:37.238Z,101737.85
2023-05-09T04:00:09.338Z,101740.24
2023-05-09T04:02:37.635Z,101735.76
2023-05-09T04:05:06.411Z,101734.20
2023-05-09T04:07:34.681Z,101730.50
2023-05-09T04:10:02.599Z,101737.56
2023-05-09T04:12:30.458Z,101733.38
2023-05-09T04:14:58.362Z,101725.56
2023-05-09T04:17:26.395Z,101726.05
2023-05-09T04:19:54.373Z,101724.45
2023-05-09T04:22:22.428Z,101723.63
2023-05-09T04:24:50.352Z,101723.63
2023-05-09T04:27:18.277Z,101724.94
2023-05-09T04:29:46.181Z,101727.03
2023-05-09T04:32:14.153Z,101727.81
2023-05-09T04:34:42.160Z,101732.30
2023-05-09T04:37:10.405Z,101727.33
2023-05-09T04:39:38.331Z,101727.33
2023-05-09T04:42:06.764Z,101730.98
2023-05-09T04:44:35.043Z,101728.11
2023-05-09T04:47:03.071Z,101721.57
2023-05-09T04:49:31.016Z,101729.41
2023-05-09T04:51:58.937Z,101731.51
2023-05-09T04:54:27.468Z,101727.33
2023-05-09T04:57:03.148Z,101729.71
2023-05-09T04:59:31.264Z,101729.22
2023-05-09T05:01:59.328Z,101729.22
2023-05-09T05:04:27.318Z,101730.79
2023-05-09T05:06:55.387Z,101742.34
2023-05-09T05:09:23.712Z,101730.79
2023-05-09T05:11:59.925Z,101736.88
2023-05-09T05:14:29.851Z,101741.35
2023-05-09T05:16:57.741Z,101735.04
2023-05-09T05:19:25.711Z,101737.16
2023-05-09T05:21:53.633Z,101738.73
2023-05-09T05:24:21.584Z,101743.22
2023-05-09T05:26:49.608Z,101742.40
2023-05-09T05:29:17.640Z,101738.73
2023-05-09T05:31:45.535Z,101738.73
2023-05-09T05:34:13.502Z,101743.71
2023-05-09T05:36:41.365Z,101742.40
2023-05-09T05:39:09.321Z,101741.13
2023-05-09T05:41:37.163Z,101747.96
2023-05-09T05:44:05.191Z,101745.60
2023-05-09T05:46:33.042Z,101744.30
2023-05-09T05:49:00.934Z,101746.68
2023-05-09T05:51:28.888Z,101746.98
2023-05-09T05:53:57.114Z,101742.83
2023-05-09T05:56:25.148Z,101740.50
2023-05-09T05:58:53.010Z,101743.51
2023-05-09T06:01:21.120Z,101744.88
2023-05-09T06:03:51.124Z,101733.70
2023-05-09T06:06:19.046Z,101732.69
2023-05-09T06:08:47.332Z,101720.95
2023-05-09T06:11:15.679Z,101717.38
2023-05-09T06:13:43.756Z,101718.76
2023-05-09T06:16:19.546Z,101708.26
2023-05-09T06:18:49.055Z,101707.57
2023-05-09T06:21:17.033Z,101711.83
2023-05-09T06:24:01.521Z,101708.72
2023-05-09T06:26:32.854Z,101713.20
2023-05-09T06:29:00.954Z,101719.80
2023-05-09T06:31:29.002Z,101717.25
2023-05-09T06:33:57.116Z,101714.12
2023-05-09T06:36:25.006Z,101702.08
2023-05-09T06:38:52.986Z,101703.39
2023-05-09T06:41:20.878Z,101699.79
2023-05-09T06:43:49.894Z,101695.05
2023-05-09T06:46:18.035Z,101698.81
2023-05-09T06:48:45.963Z,101682.33
2023-05-09T06:51:13.814Z,101685.53
2023-05-09T06:53:41.765Z,101680.83
2023-05-09T06:56:09.670Z,101676.70
2023-05-09T06:58:38.004Z,101663.04
2023-05-09T07:01:06.119Z,101657.77
2023-05-09T07:03:34.454Z,101653.42
2023-05-09T07:06:02.724Z,101665.33
2023-05-09T07:08:30.653Z,101669.58
2023-05-09T07:10:59.282Z,101663.79
2023-05-09T07:13:27.505Z,101660.84
2023-05-09T07:15:55.383Z,101657.64
2023-05-09T07:18:23.313Z,101653.72
2023-05-09T07:20:51.178Z,101651.43
2023-05-09T07:23:19.204Z,101650.25
2023-05-09T07:25:47.219Z,101646.91
2023-05-09T07:28:15.256Z,101647.21
2023-05-09T07:30:45.008Z,101636.22
2023-05-09T07:33:12.971Z,101639.16
2023-05-09T07:35:40.922Z,101632.40
2023-05-09T07:38:08.906Z,101637.17
2023-05-09T07:40:38.422Z,101630.92
2023-05-09T07:43:06.319Z,101632.49
2023-05-09T07:45:34.558Z,101627.23
2023-05-09T07:48:02.499Z,101617.55
2023-05-09T07:50:30.568Z,101616.80
2023-05-09T07:52:58.589Z,101615.75
2023-05-09T07:55:26.584Z,101610.52
2023-05-09T07:57:54.531Z,101609.73
2023-05-09T08:00:25.151Z,101606.59
2023-05-09T08:02:53.594Z,101598.45
2023-05-09T08:05:21.676Z,101596.36
2023-05-09T08:07:49.615Z,101590.34
2023-05-09T08:10:17.911Z,101586.42
2023-05-09T08:12:45.924Z,101577.27
2023-05-09T08:15:14.075Z,101582.27
2023-05-09T08:17:42.203Z,101581.77
2023-05-09T08:20:10.567Z,101568.89
2023-05-09T08:22:40.692Z,101561.02
2023-05-09T08:25:09.765Z,101567.32
2023-05-09T08:27:37.661Z,101560.75
2023-05-09T08:30:06.111Z,101559.70
2023-05-09T08:32:33.982Z,101558.13
2023-05-09T08:35:02.049Z,101546.04
2023-05-09T08:37:30.437Z,101548.13
2023-05-09T08:39:58.369Z,101548.65
2023-05-09T08:42:27.415Z,101537.89
2023-05-09T08:44:55.377Z,101546.30
2023-05-09T08:47:23.980Z,101530.77
2023-05-09T08:49:52.860Z,101536.55
2023-05-09T08:52:22.208Z,101536.81
2023-05-09T08:54:50.349Z,101528.67
2023-05-09T08:57:18.371Z,101531.55
2023-05-09T08:59:46.834Z,101530.24
2023-05-09T09:02:16.295Z,101519.16
2023-05-09T09:04:46.195Z,101519.71
2023-05-09T09:07:16.695Z,101513.34
2023-05-09T09:09:47.750Z,101514.97
2023-05-09T09:12:17.801Z,101506.27
2023-05-09T09:14:54.296Z,101493.35
2023-05-09T09:17:29.410Z,101503.36
2023-05-09T09:20:05.685Z,101497.28
2023-05-09T09:22:35.371Z,101491.23
2023-05-09T09:25:03.597Z,101486.20
2023-05-09T09:27:33.144Z,101469.88
2023-05-09T09:30:12.100Z,101476.41
2023-05-09T09:32:43.751Z,101475.60
2023-05-09T09:35:13.036Z,101465.85
2023-05-09T09:37:41.887Z,101464.77
2023-05-09T09:40:12.908Z,101465.82
2023-05-09T09:42:48.732Z,101456.60
2023-05-09T09:45:18.427Z,101454.48
2023-05-09T09:47:51.352Z,101458.66
2023-05-09T09:50:21.579Z,101449.70
2023-05-09T09:52:57.800Z,101453.63
2023-05-09T09:55:26.292Z,101441.76
2023-05-09T09:57:54.669Z,101440.67
2023-05-09T10:00:30.138Z,101440.09
2023-05-09T10:02:59.913Z,101437.41
2023-05-09T10:05:28.924Z,101428.12
2023-05-09T10:08:01.876Z,101427.56
2023-05-09T10:10:35.166Z,101415.98
2023-05-09T10:13:05.759Z,101417.33
2023-05-09T10:15:49.228Z,101411.21
2023-05-09T10:18:27.771Z,101404.87
2023-05-09T10:20:58.056Z,101399.54
2023-05-09T10:23:26.822Z,101393.72
2023-05-09T10:26:19.956Z,101384.23
2023-05-09T10:28:50.722Z,101375.83
2023-05-09T10:31:28.667Z,101377.56
2023-05-09T10:34:00.194Z,101375.14
2023-05-09T10:36:29.812Z,101365.07
2023-05-09T10:38:57.852Z,101358.96
2023-05-09T10:41:27.045Z,101351.01
2023-05-09T10:43:58.523Z,101356.44
2023-05-09T10:46:28.521Z,101349.24
2023-05-09T10:48:57.211Z,101343.62
2023-05-09T10:51:26.272Z,101334.01
2023-05-09T10:53:55.102Z,101332.02
2023-05-09T10:56:28.806Z,101329.85
2023-05-09T10:58:57.143Z,101318.93
2023-05-09T11:01:38.485Z,101314.87
2023-05-09T11:04:15.633Z,101306.41
2023-05-09T11:06:47.389Z,101306.31
2023-05-09T11:09:36.239Z,101313.93
2023-05-09T11:12:07.218Z,101302.23
2023-05-09T11:14:42.111Z,101286.04
2023-05-09T11:17:15.488Z,101282.83
2023-05-09T11:19:49.254Z,101278.02
2023-05-09T11:22:22.034Z,101272.99
2023-05-09T11:24:52.155Z,101270.57
2023-05-09T11:27:25.484Z,101271.26
2023-05-09T11:29:55.869Z,101258.77
2023-05-09T11:32:48.798Z,101257.09
2023-05-09T11:35:22.208Z,101249.05
2023-05-09T11:37:56.414Z,101239.66
2023-05-09T11:40:24.395Z,101234.77
2023-05-09T11:42:58.626Z,101219.91
2023-05-09T11:45:33.460Z,101216.32
2023-05-09T11:48:05.389Z,101222.30
2023-05-09T11:50:33.512Z,101212.13
2023-05-09T11:53:01.359Z,101205.66
2023-05-09T11:55:33.334Z,101208.99
2023-05-09T11:58:01.328Z,101203.27
2023-05-09T12:00:29.279Z,101196.80
2023-05-09T12:02:57.755Z,101192.77
2023-05-09T12:05:25.698Z,101192.41
2023-05-09T12:07:53.909Z,101183.59
2023-05-09T12:10:23.367Z,101187.84
2023-05-09T12:12:52.769Z,101180.35
2023-05-09T12:15:22.507Z,101169.92
2023-05-09T12:18:04.465Z,101173.25
2023-05-09T12:20:47.395Z,101170.57
2023-05-09T12:23:16.178Z,101167.11
2023-05-09T12:25:59.413Z,101166.52
2023-05-09T12:28:28.385Z,101160.37
2023-05-09T12:30:57.441Z,101156.35
2023-05-09T12:33:26.286Z,101145.79
2023-05-09T12:36:12.446Z,101145.79
2023-05-09T12:38:40.978Z,101135.71
2023-05-09T12:41:26.094Z,101128.91
2023-05-09T12:43:59.473Z,101131.37
2023-05-09T12:46:27.551Z,101125.12
2023-05-09T12:48:55.536Z,101115.57
2023-05-09T12:51:24.540Z,101117.37
2023-05-09T12:53:52.554Z,101108.87
2023-05-09T12:56:24.233Z,101110.41
2023-05-09T12:58:55.659Z,101112.53
2023-05-09T13:01:30.385Z,101106.38
2023-05-09T13:04:06.466Z,101108.37
2023-05-09T13:06:35.281Z,101108.02
2023-05-09T13:09:07.111Z,101106.71
2023-05-09T13:11:35.045Z,101094.80
2023-05-09T13:14:05.400Z,101086.30
2023-05-09T13:16:33.813Z,101077.77
2023-05-09T13:19:03.030Z,101084.70
2023-05-09T13:21:31.040Z,101082.61
2023-05-09T13:23:58.983Z,101078.33
2023-05-09T13:26:28.302Z,101077.77
2023-05-09T13:28:56.435Z,101066.55
2023-05-09T13:31:24.503Z,101063.09
2023-05-09T13:33:52.576Z,101058.80
2023-05-09T13:36:20.687Z,101056.12
2023-05-09T13:38:49.103Z,101052.03
2023-05-09T13:41:21.403Z,101045.46
2023-05-09T13:43:49.713Z,101044.09
2023-05-09T13:46:17.668Z,101048.80
2023-05-09T13:48:45.739Z,101035.03
2023-05-09T13:51:13.561Z,101033.33
2023-05-09T13:53:41.559Z,101034.90
2023-05-09T13:56:10.941Z,101022.31
2023-05-09T13:58:38.942Z,101024.30
2023-05-09T14:01:06.826Z,101020.05
2023-05-09T14:03:34.899Z,101009.39
2023-05-09T14:06:02.912Z,101014.20
2023-05-09T14:08:30.938Z,101014.43
2023-05-09T14:10:58.877Z,101006.48
2023-05-09T14:13:26.835Z,101007.82
2023-05-09T14:15:55.047Z,100995.01
2023-05-09T14:18:22.945Z,100997.36
2023-05-09T14:20:50.822Z,100984.34
2023-05-09T14:23:18.787Z,100995.79
2023-05-09T14:25:46.825Z,100987.13
2023-05-09T14:28:15.931Z,100987.48
2023-05-09T14:30:44.014Z,100978.52
2023-05-09T14:33:12.438Z,100980.29
2023-05-09T14:35:41.675Z,100968.84
2023-05-09T14:38:09.888Z,100973.75
2023-05-09T14:40:37.839Z,100971.04
2023-05-09T14:43:05.768Z,100964.37
2023-05-09T14:45:34.608Z,100969.80
2023-05-09T14:48:04.749Z,100966.88
2023-05-09T14:50:32.987Z,100959.85
2023-05-09T14:53:02.210Z,100965.84
2023-05-09T14:55:32.357Z,100959.98
2023-05-09T14:58:00.360Z,100958.77
2023-05-09T15:00:29.467Z,100955.24
2023-05-09T15:02:57.597Z,100957.04
2023-05-09T15:05:25.690Z,100954.09
2023-05-09T15:07:53.522Z,100948.96
2023-05-09T15:10:21.403Z,100952.23
2023-05-09T15:12:49.297Z,100946.12
2023-05-09T15:15:22.245Z,100943.50
2023-05-09T15:17:50.663Z,100939.58
2023-05-09T15:20:19.485Z,100946.67
2023-05-09T15:22:51.855Z,100943.90
2023-05-09T15:25:20.963Z,100940.20
2023-05-09T15:27:51.618Z,100933.30
2023-05-09T15:30:19.459Z,100932.65
2023-05-09T15:32:48.248Z,100928.49
2023-05-09T15:35:17.139Z,100921.70
2023-05-09T15:37:45.570Z,100924.50
2023-05-09T15:40:14.265Z,100919.37
2023-05-09T15:42:42.405Z,100917.15
2023-05-09T15:45:10.398Z,100915.91
2023-05-09T15:47:38.351Z,100923.78
2023-05-09T15:50:06.800Z,100920.41
2023-05-09T15:52:34.697Z,100913.71
2023-05-09T15:55:02.742Z,100920.45
2023-05-09T15:57:30.721Z,100922.45
2023-05-09T15:59:58.813Z,100925.02
2023-05-09T16:02:26.797Z,100929.41
2023-05-09T16:04:54.983Z,100934.05
2023-05-09T16:07:23.220Z,100922.87
2023-05-09T16:09:51.387Z,100927.22
2023-05-09T16:12:19.290Z,100926.20
2023-05-09T16:14:47.286Z,100921.27
2023-05-09T16:17:15.319Z,100927.45
2023-05-09T16:19:43.714Z,100934.67
2023-05-09T16:22:11.894Z,100926.53
2023-05-09T16:24:39.871Z,100927.97
2023-05-09T16:27:07.825Z,100928.82
2023-05-09T16:29:35.830Z,100924.66
2023-05-09T16:32:04.193Z,100925.26
2023-05-09T16:34:32.237Z,100917.96
2023-05-09T16:37:00.491Z,100917.73
2023-05-09T16:39:29.324Z,100927.88
2023-05-09T16:41:57.837Z,100934.22
2023-05-09T16:44:27.761Z,100931.53
2023-05-09T16:46:55.690Z,100932.13
2023-05-09T16:49:23.743Z,100944.62
2023-05-09T16:51:51.827Z,100948.57
2023-05-09T16:54:19.825Z,100946.41
2023-05-09T16:56:47.778Z,100960.80
2023-05-09T16:59:16.275Z,100967.57
2023-05-09T17:01:44.678Z,100965.80
2023-05-09T17:04:12.678Z,100971.73
2023-05-09T17:06:40.655Z,100979.41
2023-05-09T17:09:08.911Z,100982.58
2023-05-09T17:11:36.946Z,100988.43
2023-05-09T17:14:04.931Z,100982.41
2023-05-09T17:16:33.424Z,100985.85
2023-05-09T17:19:02.288Z,100987.42
2023-05-09T17:21:30.582Z,100986.93
2023-05-09T17:23:58.592Z,100992.48
2023-05-09T17:26:27.192Z,100993.27
2023-05-09T17:28:55.094Z,101005.08
2023-05-09T17:31:23.114Z,101012.73
2023-05-09T17:33:51.337Z,101010.60
2023-05-09T17:36:19.286Z,101011.42
2023-05-09T17:38:47.432Z,101016.91
2023-05-09T17:41:15.321Z,101016.39
2023-05-09T17:43:43.281Z,101016.88
2023-05-09T17:46:11.620Z,101025.84
2023-05-09T17:48:40.041Z,101025.05
2023-05-09T17:51:08.437Z,101017.18
2023-05-09T17:53:36.454Z,101022.67
2023-05-09T17:56:04.522Z,101031.07
2023-05-09T17:58:33.195Z,101026.89
2023-05-09T18:01:01.215Z,101032.12
2023-05-09T18:03:30.092Z,101031.07
2023-05-09T18:05:58.667Z,101047.33
2023-05-09T18:08:26.708Z,101034.21
2023-05-09T18:10:57.900Z,101032.12
2023-05-09T18:13:25.926Z,101037.62
2023-05-09T18:15:56.188Z,101031.86
2023-05-09T18:18:24.292Z,101037.88
2023-05-09T18:20:52.242Z,101042.06
2023-05-09T18:23:20.163Z,101035.48
2023-05-09T18:25:48.207Z,101037.84
2023-05-09T18:28:16.148Z,101029.44
2023-05-09T18:30:44.133Z,101031.50
2023-05-09T18:33:12.129Z,101039.38
2023-05-09T18:35:39.968Z,101033.59
2023-05-09T18:38:08.188Z,101041.93
2023-05-09T18:40:38.396Z,101041.41
2023-05-09T18:43:07.465Z,101040.88
2023-05-09T18:45:35.673Z,101039.84
2023-05-09T18:48:04.182Z,101044.74
2023-05-09T18:50:32.797Z,101044.97
2023-05-09T18:53:00.979Z,101048.90
2023-05-09T18:55:29.106Z,101048.60
2023-05-09T18:57:57.585Z,101052.49
2023-05-09T19:00:25.531Z,101048.80
2023-05-09T19:02:53.524Z,101046.15
2023-05-09T19:05:21.884Z,101053.44
2023-05-09T19:07:51.749Z,101056.58
2023-05-09T19:10:20.198Z,101055.77
2023-05-09T19:12:48.799Z,101056.25
2023-05-09T19:15:17.306Z,101058.87
2023-05-09T19:17:45.497Z,101050.95
2023-05-09T19:20:14.260Z,101058.84
2023-05-09T19:22:46.884Z,101049.12
2023-05-09T19:25:14.946Z,101051.25
2023-05-09T19:27:42.906Z,101062.99
2023-05-09T19:30:11.494Z,101058.54
2023-05-09T19:32:39.489Z,101053.27
2023-05-09T19:35:08.043Z,101064.00
2023-05-09T19:37:37.075Z,101066.09
2023-05-09T19:40:06.980Z,101063.45
2023-05-09T19:42:35.914Z,101068.38
2023-05-09T19:45:04.965Z,101069.20
2023-05-09T19:47:33.040Z,101066.81
2023-05-09T19:50:01.324Z,101063.19
2023-05-09T19:52:31.053Z,101070.25
2023-05-09T19:54:59.087Z,101074.40
2023-05-09T19:57:27.369Z,101070.74
2023-05-09T19:59:56.510Z,101064.20
2023-05-09T20:02:24.473Z,101075.41
2023-05-09T20:04:52.597Z,101067.30
2023-05-09T20:07:20.553Z,101065.73
2023-05-09T20:09:48.559Z,101064.92
2023-05-09T20:12:17.033Z,101066.23
2023-05-09T20:14:45.813Z,101060.47
2023-05-09T20:17:13.740Z,101067.83
2023-05-09T20:19:41.700Z,101066.75
2023-05-09T20:22:10.276Z,101069.62
2023-05-09T20:24:38.290Z,101070.41
2023-05-09T20:27:06.294Z,101069.62
2023-05-09T20:29:34.241Z,101071.72
2023-05-09T20:32:02.520Z,101066.98
2023-05-09T20:34:30.651Z,101068.05
2023-05-09T20:36:58.622Z,101067.27
2023-05-09T20:39:26.639Z,101067.27
2023-05-09T20:41:56.049Z,101067.27
2023-05-09T20:44:23.984Z,101073.03
2023-05-09T20:46:52.060Z,101070.94
2023-05-09T20:49:20.370Z,101084.54
2023-05-09T20:51:48.341Z,101081.37
2023-05-09T20:54:16.281Z,101086.34
2023-05-09T20:56:44.222Z,101086.08
2023-05-09T20:59:12.110Z,101089.45
2023-05-09T21:01:41.527Z,101093.63
2023-05-09T21:04:09.897Z,101083.13
2023-05-09T21:06:38.198Z,101083.36
2023-05-09T21:09:10.496Z,101089.90
2023-05-09T21:11:39.671Z,101080.45
2023-05-09T21:14:09.336Z,101084.60
2023-05-09T21:16:37.298Z,101081.95
2023-05-09T21:19:06.550Z,101078.00
2023-05-09T21:21:34.553Z,101086.63
2023-05-09T21:24:04.568Z,101080.13
2023-05-09T21:26:32.508Z,101075.35
2023-05-09T21:29:00.407Z,101087.38
2023-05-09T21:31:28.320Z,101080.05
2023-05-09T21:33:56.239Z,101078.45
2023-05-09T21:36:24.145Z,101072.96
2023-05-09T21:38:52.335Z,101069.27
2023-05-09T21:41:20.237Z,101076.30
2023-05-09T21:43:48.162Z,101077.61
2023-05-09T21:46:16.115Z,101078.88
2023-05-09T21:48:43.985Z,101081.23
2023-05-09T21:51:13.694Z,101073.42
2023-05-09T21:53:41.706Z,101076.00
2023-05-09T21:56:09.620Z,101078.36
2023-05-09T21:58:37.670Z,101073.91
2023-05-09T22:01:05.727Z,101076.79
2023-05-09T22:03:33.920Z,101079.66
2023-05-09T22:06:02.113Z,101074.73
2023-05-09T22:08:29.977Z,101076.30
2023-05-09T22:10:57.840Z,101069.73
2023-05-09T22:13:25.997Z,101077.09
2023-05-09T22:15:54.236Z,101073.71
2023-05-09T22:18:22.205Z,101072.15
2023-05-09T22:20:50.057Z,101082.34
2023-05-09T22:23:17.920Z,101069.53
2023-05-09T22:25:45.839Z,101069.53
2023-05-09T22:28:13.799Z,101075.28
2023-05-09T22:30:41.813Z,101079.77
2023-05-09T22:33:09.737Z,101075.58
2023-05-09T22:35:37.809Z,101070.61
2023-05-09T22:38:05.768Z,101074.30
2023-05-09T22:40:34.053Z,101073.48
2023-05-09T22:43:01.952Z,101072.21
2023-05-09T22:45:29.903Z,101072.99
2023-05-09T22:47:57.830Z,101066.72
2023-05-09T22:50:25.836Z,101070.90
2023-05-09T22:52:53.825Z,101079.53
2023-05-09T22:55:21.827Z,101072.70
2023-05-09T22:57:49.767Z,101069.04
2023-05-09T23:00:18.192Z,101073.71
2023-05-09T23:02:46.916Z,101078.16
2023-05-09T23:05:14.857Z,101073.71
2023-05-09T23:07:42.772Z,101073.91
2023-05-09T23:10:11.708Z,101071.85
2023-05-09T23:12:39.550Z,101073.12
2023-05-09T23:15:08.725Z,101066.09
2023-05-09T23:17:36.847Z,101072.60
2023-05-09T23:20:05.545Z,101072.60
2023-05-09T23:22:33.406Z,101074.20
2023-05-09T23:25:02.176Z,101062.40
2023-05-09T23:27:32.471Z,101066.09
2023-05-09T23:30:00.504Z,101056.16
2023-05-09T23:32:28.563Z,101064.33
2023-05-09T23:34:56.523Z,101061.91
2023-05-09T23:37:24.413Z,101065.28
2023-05-09T23:39:52.298Z,101077.54
2023-05-09T23:42:20.175Z,101062.56
2023-05-09T23:44:48.257Z,101071.95
2023-05-09T23:47:16.128Z,101064.04
2023-05-09T23:49:44.501Z,101067.44
2023-05-09T23:52:12.496Z,101064.49
2023-05-09T23:54:41.162Z,101066.78
2023-05-09T23:57:09.214Z,101059.69
2023-05-09T23:59:37.340Z,101062.27
